Time;durP1;ratioP1;P1;durP2;ratioP2;P2;SDS_P1;SDS_P2;PMS_P1;PMS_P2;Temp;Humidity;BMP_temperature;BMP_pressure;BME280_temperature;BME280_humidity;BME280_pressure;Samples;Min_cycle;Max_cycle;Signal;HPM_P1;HPM_P2
2023/09/21 00:00:16;;;;;;;2.80;1.48;;;21.60;65.30;;;;;;5019540;28;20345;-66
2023/09/21 00:02:49;;;;;;;1.77;1.50;;;21.60;65.20;;;;;;5021645;28;20041;-66
2023/09/21 00:05:17;;;;;;;2.20;1.55;;;21.60;65.30;;;;;;5017896;28;20033;-66
2023/09/21 00:07:43;;;;;;;2.20;1.35;;;21.60;65.30;;;;;;5021273;28;20404;-66
2023/09/21 00:10:09;;;;;;;1.75;1.20;;;21.60;65.30;;;;;;5019424;28;20029;-65
2023/09/21 00:12:35;;;;;;;2.00;1.60;;;21.60;65.20;;;;;;5021347;28;20022;-66
2023/09/21 00:15:06;;;;;;;1.92;1.45;;;21.60;65.30;;;;;;5023983;28;20103;-66
2023/09/21 00:17:36;;;;;;;1.40;1.30;;;21.60;65.40;;;;;;5023364;28;20030;-66
2023/09/21 00:20:11;;;;;;;1.75;1.20;;;21.60;65.30;;;;;;5022403;28;20045;-66
2023/09/21 00:22:37;;;;;;;1.60;1.30;;;21.60;65.40;;;;;;5019650;28;20056;-67
2023/09/21 00:25:04;;;;;;;2.95;1.27;;;21.60;65.30;;;;;;5023685;28;20029;-66
2023/09/21 00:27:30;;;;;;;1.80;1.40;;;21.60;65.40;;;;;;5020413;28;20666;-66
2023/09/21 00:29:55;;;;;;;1.55;1.20;;;21.60;65.30;;;;;;5022769;28;20104;-66
2023/09/21 00:32:21;;;;;;;1.40;1.30;;;21.60;65.30;;;;;;5021866;28;20377;-66
2023/09/21 00:34:50;;;;;;;1.95;1.30;;;21.60;65.20;;;;;;5020283;28;20109;-67
2023/09/21 00:37:17;;;;;;;1.83;1.10;;;21.60;65.20;;;;;;5024727;28;20226;-66
2023/09/21 00:39:42;;;;;;;2.00;1.10;;;21.60;65.20;;;;;;5019481;28;20526;-66
2023/09/21 00:42:08;;;;;;;1.92;1.00;;;21.60;65.30;;;;;;5020559;28;20033;-67
2023/09/21 00:44:33;;;;;;;1.80;1.10;;;21.60;65.30;;;;;;5000840;28;20029;-67
2023/09/21 00:47:00;;;;;;;1.80;0.90;;;21.60;65.90;;;;;;5022987;28;20044;-67
2023/09/21 00:49:27;;;;;;;1.60;1.17;;;21.60;65.20;;;;;;5021762;28;20037;-67
2023/09/21 00:51:56;;;;;;;1.75;1.17;;;21.60;65.30;;;;;;5022613;28;20044;-66
2023/09/21 00:54:23;;;;;;;1.27;1.10;;;21.60;65.30;;;;;;5017979;28;20038;-66
2023/09/21 00:56:51;;;;;;;1.80;1.10;;;21.60;65.30;;;;;;5019258;28;20030;-67
2023/09/21 00:59:19;;;;;;;1.48;1.17;;;21.60;65.30;;;;;;5014420;28;20029;-64
2023/09/21 01:01:44;;;;;;;1.60;1.25;;;21.60;65.50;;;;;;4997723;28;20109;-66
2023/09/21 01:04:12;;;;;;;1.58;1.10;;;21.60;65.20;;;;;;5023986;28;20723;-65
2023/09/21 01:06:39;;;;;;;1.30;1.20;;;21.60;65.30;;;;;;5018322;28;20389;-63
2023/09/21 01:09:06;;;;;;;2.15;1.38;;;21.60;65.30;;;;;;5019253;28;20365;-65
2023/09/21 01:11:36;;;;;;;1.10;1.00;;;21.60;65.30;;;;;;5019462;28;20029;-66
2023/09/21 01:14:02;;;;;;;1.95;1.45;;;21.60;65.30;;;;;;5020290;28;20025;-63
2023/09/21 01:16:28;;;;;;;1.88;1.30;;;21.60;65.20;;;;;;5021545;28;20037;-65
2023/09/21 01:18:53;;;;;;;4.40;1.20;;;21.60;65.30;;;;;;5017410;28;20044;-65
2023/09/21 01:21:28;;;;;;;1.13;0.95;;;21.50;65.20;;;;;;5021232;28;20045;-65
2023/09/21 01:23:56;;;;;;;1.05;0.95;;;21.60;65.40;;;;;;5017771;28;20083;-62
2023/09/21 01:26:22;;;;;;;1.35;1.00;;;21.60;65.30;;;;;;5016453;28;20048;-66
2023/09/21 01:28:48;;;;;;;1.60;0.98;;;21.60;65.30;;;;;;5019117;28;20030;-62
2023/09/21 01:31:14;;;;;;;1.35;1.15;;;21.50;65.20;;;;;;4999404;28;20093;-63
2023/09/21 01:33:41;;;;;;;2.38;1.00;;;21.60;65.30;;;;;;5017553;28;20065;-64
2023/09/21 01:36:08;;;;;;;1.42;0.95;;;21.50;65.20;;;;;;5019010;28;20570;-63
2023/09/21 01:38:38;;;;;;;1.45;1.08;;;21.50;65.30;;;;;;5020500;28;20079;-64
2023/09/21 01:41:06;;;;;;;2.28;1.20;;;21.50;65.20;;;;;;5019184;28;20541;-65
2023/09/21 01:43:32;;;;;;;1.13;0.98;;;21.50;65.30;;;;;;5021654;28;20037;-62
2023/09/21 01:45:58;;;;;;;1.23;0.90;;;21.50;65.30;;;;;;5019209;28;20095;-66
2023/09/21 01:48:23;;;;;;;1.45;1.00;;;21.50;65.30;;;;;;5019900;28;20029;-66
2023/09/21 01:50:50;;;;;;;0.95;0.85;;;21.50;65.30;;;;;;5019028;28;21086;-66
2023/09/21 01:53:21;;;;;;;1.20;1.10;;;21.50;65.30;;;;;;5020998;28;20087;-63
2023/09/21 01:55:48;;;;;;;1.42;1.02;;;21.60;65.30;;;;;;5015751;28;20538;-63
2023/09/21 01:58:15;;;;;;;2.22;1.02;;;21.60;65.40;;;;;;5003041;28;20042;-66
2023/09/21 02:00:43;;;;;;;1.35;1.20;;;21.50;65.10;;;;;;5017517;28;20120;-66
2023/09/21 02:03:12;;;;;;;2.17;0.98;;;21.50;65.20;;;;;;5013358;28;20584;-69
2023/09/21 02:05:41;;;;;;;1.40;1.17;;;21.50;65.20;;;;;;5021964;28;20041;-65
2023/09/21 02:08:09;;;;;;;1.20;1.08;;;21.60;65.30;;;;;;5018602;28;20731;-66
2023/09/21 02:10:39;;;;;;;1.88;1.00;;;21.50;65.20;;;;;;4997629;28;20041;-66
2023/09/21 02:13:08;;;;;;;1.00;0.90;;;21.50;65.20;;;;;;5019993;28;20180;-66
2023/09/21 02:15:37;;;;;;;2.55;1.20;;;21.50;65.20;;;;;;5020077;28;20523;-66
2023/09/21 02:18:04;;;;;;;2.88;1.10;;;21.50;65.30;;;;;;5014383;28;20057;-66
2023/09/21 02:20:30;;;;;;;1.25;0.93;;;21.50;65.20;;;;;;5018543;28;20049;-67
2023/09/21 02:23:00;;;;;;;2.25;1.42;;;21.50;65.30;;;;;;5018765;28;20034;-66
2023/09/21 02:25:30;;;;;;;1.80;1.20;;;21.50;65.20;;;;;;5020365;28;20082;-66
2023/09/21 02:27:56;;;;;;;1.05;0.85;;;21.50;65.30;;;;;;5012446;28;20029;-66
2023/09/21 02:30:22;;;;;;;2.75;1.25;;;21.50;65.20;;;;;;5020993;28;20103;-66
2023/09/21 02:32:50;;;;;;;1.88;1.20;;;21.50;65.30;;;;;;5008404;28;20037;-63
2023/09/21 02:35:18;;;;;;;1.00;0.80;;;21.50;65.30;;;;;;5019705;28;20053;-65
2023/09/21 02:37:48;;;;;;;1.10;1.00;;;21.50;65.20;;;;;;5019199;28;20104;-66
2023/09/21 02:40:16;;;;;;;1.60;1.10;;;21.50;65.20;;;;;;5019387;28;20036;-65
2023/09/21 02:42:43;;;;;;;1.35;0.90;;;21.50;65.20;;;;;;5021238;28;20033;-66
2023/09/21 02:45:10;;;;;;;1.40;1.10;;;21.50;65.10;;;;;;5018686;28;20413;-66
2023/09/21 02:47:37;;;;;;;0.90;0.82;;;21.50;65.20;;;;;;5018769;28;20029;-66
2023/09/21 02:50:14;;;;;;;2.08;1.20;;;21.50;65.20;;;;;;5019913;28;20041;-66
2023/09/21 02:52:46;;;;;;;1.20;1.02;;;21.50;65.20;;;;;;5016691;28;20038;-66
2023/09/21 02:55:15;;;;;;;2.70;0.98;;;21.50;65.20;;;;;;5015896;28;20034;-66
2023/09/21 02:57:40;;;;;;;2.40;1.00;;;21.50;65.10;;;;;;5018584;28;20036;-66
2023/09/21 03:00:19;;;;;;;1.33;1.23;;;21.50;65.10;;;;;;5017753;28;20037;-66
2023/09/21 03:02:44;;;;;;;0.80;0.70;;;21.50;65.20;;;;;;5020747;28;20033;-64
2023/09/21 03:05:11;;;;;;;1.65;0.98;;;21.50;65.20;;;;;;5026487;28;20030;-63
2023/09/21 03:07:39;;;;;;;3.60;1.30;;;21.50;65.10;;;;;;5027572;28;20060;-67
2023/09/21 03:10:09;;;;;;;0.93;0.90;;;21.50;65.10;;;;;;5029264;28;20026;-65
2023/09/21 03:12:36;;;;;;;2.15;1.23;;;21.40;65.10;;;;;;5021658;28;20033;-67
2023/09/21 03:15:13;;;;;;;1.90;1.33;;;21.40;65.10;;;;;;5024745;28;20251;-66
2023/09/21 03:17:40;;;;;;;1.00;0.90;;;21.40;65.00;;;;;;5022196;28;20030;-66
2023/09/21 03:20:09;;;;;;;1.55;0.95;;;21.50;65.10;;;;;;5025843;28;20033;-66
2023/09/21 03:22:35;;;;;;;1.42;1.10;;;21.40;65.10;;;;;;5024323;28;20561;-63
2023/09/21 03:25:01;;;;;;;1.08;0.88;;;21.40;65.10;;;;;;5020922;28;20029;-67
2023/09/21 03:27:26;;;;;;;2.10;1.35;;;21.50;65.20;;;;;;5025280;28;20025;-67
2023/09/21 03:29:53;;;;;;;1.23;1.02;;;21.40;65.10;;;;;;5028300;28;20029;-66
2023/09/21 03:32:18;;;;;;;1.88;1.20;;;21.40;65.10;;;;;;5025940;28;20526;-66
2023/09/21 03:34:45;;;;;;;1.42;1.02;;;21.40;65.10;;;;;;5027738;28;20035;-67
2023/09/21 03:37:11;;;;;;;1.35;1.00;;;21.40;65.10;;;;;;5025725;28;20022;-67
2023/09/21 03:39:37;;;;;;;1.75;0.90;;;21.40;65.20;;;;;;5029108;28;20633;-66
2023/09/21 03:42:03;;;;;;;1.45;1.17;;;21.40;65.10;;;;;;5026267;28;20119;-66
2023/09/21 03:44:30;;;;;;;1.73;1.42;;;21.40;65.10;;;;;;5025930;28;20567;-65
2023/09/21 03:46:55;;;;;;;1.92;0.80;;;21.40;65.10;;;;;;5025576;28;20054;-66
2023/09/21 03:49:21;;;;;;;1.02;0.80;;;21.40;65.20;;;;;;5026947;28;20171;-67
2023/09/21 03:51:47;;;;;;;1.48;1.10;;;21.40;65.20;;;;;;5023937;28;20439;-66
2023/09/21 03:54:16;;;;;;;1.17;1.05;;;21.40;65.10;;;;;;5025219;28;20026;-65
2023/09/21 03:56:42;;;;;;;1.58;1.08;;;21.40;65.10;;;;;;5024278;28;20026;-62
2023/09/21 03:59:07;;;;;;;1.20;1.10;;;21.40;65.10;;;;;;5022956;28;20032;-66
2023/09/21 04:01:37;;;;;;;1.73;0.98;;;21.50;65.30;;;;;;5023887;28;20095;-66
2023/09/21 04:04:08;;;;;;;1.52;0.90;;;21.40;65.20;;;;;;5024809;28;20034;-66
2023/09/21 04:06:34;;;;;;;2.10;1.23;;;21.40;65.10;;;;;;5024524;28;20057;-66
2023/09/21 04:09:00;;;;;;;1.63;1.48;;;21.50;65.20;;;;;;5027372;28;20120;-65
2023/09/21 04:11:28;;;;;;;0.98;0.88;;;21.40;65.10;;;;;;5026814;28;20108;-67
2023/09/21 04:13:54;;;;;;;1.38;0.95;;;21.40;65.20;;;;;;5024779;28;20091;-66
2023/09/21 04:16:19;;;;;;;1.10;1.00;;;21.40;65.20;;;;;;5025808;28;20029;-66
2023/09/21 04:18:46;;;;;;;2.85;1.10;;;21.40;65.20;;;;;;5023488;28;20036;-66
2023/09/21 04:21:11;;;;;;;1.02;0.93;;;21.40;65.30;;;;;;5023276;28;20115;-66
2023/09/21 04:23:37;;;;;;;1.17;0.98;;;21.40;65.20;;;;;;5021935;28;20500;-66
2023/09/21 04:26:02;;;;;;;1.63;1.00;;;21.40;65.20;;;;;;5019559;28;20033;-67
2023/09/21 04:28:28;;;;;;;1.42;0.82;;;21.40;65.20;;;;;;5020040;28;20153;-63
2023/09/21 04:30:53;;;;;;;1.60;1.00;;;21.40;65.20;;;;;;5020867;28;20033;-66
2023/09/21 04:33:19;;;;;;;0.90;0.88;;;21.40;65.20;;;;;;5020920;28;20037;-66
2023/09/21 04:35:44;;;;;;;1.45;1.00;;;21.40;65.30;;;;;;5022586;28;20026;-66
2023/09/21 04:38:10;;;;;;;0.90;0.70;;;21.40;65.20;;;;;;5020923;28;20106;-66
2023/09/21 04:40:35;;;;;;;1.63;1.25;;;21.40;65.20;;;;;;5024075;28;20037;-65
2023/09/21 04:43:01;;;;;;;1.65;1.35;;;21.40;65.30;;;;;;5023060;28;20510;-64
2023/09/21 04:45:26;;;;;;;1.60;1.00;;;21.40;65.30;;;;;;5027325;28;20038;-67
2023/09/21 04:47:58;;;;;;;1.10;1.00;;;21.40;65.30;;;;;;5021279;28;20030;-65
2023/09/21 04:50:24;;;;;;;1.75;1.00;;;21.40;65.30;;;;;;5010774;28;20037;-60
2023/09/21 04:52:50;;;;;;;1.00;0.93;;;21.40;65.30;;;;;;5020085;28;20045;-66
2023/09/21 04:55:16;;;;;;;2.35;0.90;;;21.40;65.40;;;;;;5018535;28;20029;-66
2023/09/21 04:57:42;;;;;;;2.17;0.70;;;21.40;65.40;;;;;;5018378;28;20038;-66
2023/09/21 05:00:10;;;;;;;1.38;1.17;;;21.40;65.30;;;;;;5020278;28;20080;-66
2023/09/21 05:02:36;;;;;;;1.55;1.00;;;21.40;65.40;;;;;;5020509;28;20067;-64
2023/09/21 05:05:02;;;;;;;1.17;0.90;;;21.40;65.30;;;;;;5019222;28;20022;-66
2023/09/21 05:07:28;;;;;;;2.42;0.88;;;21.40;65.50;;;;;;5021825;28;20084;-66
2023/09/21 05:09:53;;;;;;;2.25;1.27;;;21.40;65.50;;;;;;5020028;28;20489;-67
2023/09/21 05:12:19;;;;;;;2.55;1.08;;;21.40;65.50;;;;;;5018469;28;20042;-63
2023/09/21 05:14:45;;;;;;;1.90;1.50;;;21.40;65.50;;;;;;5021342;28;20181;-65
2023/09/21 05:17:11;;;;;;;6.78;2.65;;;21.40;65.50;;;;;;5021851;28;20029;-63
2023/09/21 05:19:37;;;;;;;7.13;3.05;;;21.40;65.50;;;;;;5003590;28;20037;-65
2023/09/21 05:22:04;;;;;;;6.50;2.72;;;21.40;65.60;;;;;;5018616;28;20484;-66
2023/09/21 05:24:30;;;;;;;6.60;2.78;;;21.30;65.40;;;;;;5021553;28;20041;-64
2023/09/21 05:26:56;;;;;;;7.75;3.15;;;21.40;65.50;;;;;;5023639;28;20022;-64
2023/09/21 05:29:23;;;;;;;8.82;3.15;;;21.30;65.50;;;;;;5017415;28;20360;-66
2023/09/21 05:31:49;;;;;;;8.70;2.85;;;21.30;65.40;;;;;;5017913;28;20431;-65
2023/09/21 05:34:15;;;;;;;8.32;2.33;;;21.30;65.40;;;;;;5009091;28;20029;-65
2023/09/21 05:36:41;;;;;;;7.70;2.42;;;21.40;65.50;;;;;;5021401;28;20025;-65
2023/09/21 05:39:08;;;;;;;7.10;2.60;;;21.40;65.50;;;;;;5018977;28;20018;-67
2023/09/21 05:41:34;;;;;;;7.30;2.45;;;21.40;65.60;;;;;;5001750;28;20607;-64
2023/09/21 05:43:59;;;;;;;9.20;2.88;;;21.40;65.50;;;;;;5021271;28;20064;-65
2023/09/21 05:46:25;;;;;;;5.45;2.33;;;21.40;65.60;;;;;;4990207;28;20488;-66
2023/09/21 05:48:50;;;;;;;7.20;1.80;;;21.40;65.60;;;;;;5017561;28;20108;-65
2023/09/21 05:51:17;;;;;;;3.30;2.15;;;21.40;65.50;;;;;;5018867;28;20414;-60
2023/09/21 05:53:42;;;;;;;6.38;1.83;;;21.40;65.30;;;;;;5017850;28;20061;-63
2023/09/21 05:56:08;;;;;;;4.60;1.90;;;21.40;65.40;;;;;;5020342;28;20463;-63
2023/09/21 05:58:36;;;;;;;2.30;1.55;;;21.30;65.40;;;;;;5017123;28;20045;-63
2023/09/21 06:01:02;;;;;;;6.93;2.53;;;21.30;65.30;;;;;;5017253;28;20070;-64
2023/09/21 06:03:28;;;;;;;6.35;1.40;;;21.30;65.20;;;;;;5016875;28;20095;-63
2023/09/21 06:05:54;;;;;;;3.28;1.90;;;21.30;65.10;;;;;;5019655;28;20029;-63
2023/09/21 06:08:19;;;;;;;2.08;1.20;;;21.30;65.10;;;;;;5020346;28;20448;-63
2023/09/21 06:10:48;;;;;;;2.72;1.52;;;21.30;64.90;;;;;;5019929;28;20117;-60
2023/09/21 06:13:14;;;;;;;2.63;1.20;;;21.30;64.80;;;;;;5022510;28;20511;-64
2023/09/21 06:15:47;;;;;;;2.75;1.42;;;21.30;64.90;;;;;;5019523;28;20030;-64
2023/09/21 06:18:14;;;;;;;1.75;1.50;;;21.30;65.00;;;;;;5017032;28;20041;-64
2023/09/21 06:20:41;;;;;;;3.42;1.20;;;21.30;64.90;;;;;;4998192;28;20520;-60
2023/09/21 06:23:07;;;;;;;2.15;1.20;;;21.30;65.00;;;;;;5016199;28;20037;-63
2023/09/21 06:25:34;;;;;;;1.85;1.45;;;21.30;64.80;;;;;;5008500;28;20562;-64
2023/09/21 06:27:59;;;;;;;3.47;1.63;;;21.30;64.80;;;;;;5017741;28;20042;-63
2023/09/21 06:30:25;;;;;;;2.25;1.35;;;21.30;65.50;;;;;;5003899;28;20080;-63
2023/09/21 06:32:50;;;;;;;5.70;1.40;;;21.30;65.10;;;;;;5015202;28;20404;-63
2023/09/21 06:35:16;;;;;;;2.92;1.40;;;21.30;65.90;;;;;;5000225;28;20029;-63
2023/09/21 06:37:42;;;;;;;3.45;1.85;;;21.30;65.80;;;;;;5019549;28;20400;-62
2023/09/21 06:40:09;;;;;;;2.13;1.50;;;21.30;66.10;;;;;;5020377;28;20033;-62
2023/09/21 06:42:34;;;;;;;5.35;1.60;;;21.30;65.60;;;;;;5021196;28;20030;-61
2023/09/21 06:45:00;;;;;;;4.60;1.88;;;21.30;65.90;;;;;;5017846;28;20432;-63
2023/09/21 06:47:28;;;;;;;2.72;1.73;;;21.30;66.60;;;;;;5014626;28;20286;-63
2023/09/21 06:49:54;;;;;;;4.20;1.50;;;21.30;66.80;;;;;;5013920;28;20532;-65
2023/09/21 06:52:21;;;;;;;2.38;1.60;;;21.30;66.80;;;;;;5015232;28;20179;-64
2023/09/21 06:54:48;;;;;;;3.97;1.38;;;21.30;67.00;;;;;;5018268;28;20065;-64
2023/09/21 06:57:15;;;;;;;5.85;1.80;;;21.40;67.00;;;;;;5015133;28;20029;-63
2023/09/21 06:59:41;;;;;;;5.88;1.52;;;21.40;66.80;;;;;;5015935;28;20036;-62
2023/09/21 07:02:07;;;;;;;5.65;2.00;;;21.40;66.80;;;;;;5015284;28;20030;-63
2023/09/21 07:04:37;;;;;;;4.38;1.35;;;21.40;66.70;;;;;;5017843;28;20041;-63
2023/09/21 07:07:07;;;;;;;3.80;1.67;;;21.40;66.80;;;;;;5017545;28;20091;-61
2023/09/21 07:09:36;;;;;;;5.97;2.28;;;21.30;66.60;;;;;;5021984;28;20034;-63
2023/09/21 07:12:05;;;;;;;3.47;1.60;;;21.30;67.00;;;;;;5018737;28;20018;-62
2023/09/21 07:14:32;;;;;;;5.57;1.70;;;21.30;66.80;;;;;;5017430;28;20025;-58
2023/09/21 07:16:59;;;;;;;6.28;1.60;;;21.30;66.70;;;;;;5017054;28;20030;-66
2023/09/21 07:19:25;;;;;;;7.85;1.70;;;21.30;66.80;;;;;;5014481;28;20054;-61
2023/09/21 07:21:50;;;;;;;4.55;1.63;;;21.30;66.10;;;;;;4991902;28;20156;-62
2023/09/21 07:24:16;;;;;;;2.38;1.50;;;21.30;65.40;;;;;;4971662;28;20101;-62
2023/09/21 07:26:45;;;;;;;4.72;1.75;;;21.40;65.70;;;;;;5012103;28;20066;-59
2023/09/21 07:29:11;;;;;;;4.72;1.40;;;21.40;65.80;;;;;;5015412;28;20037;-61
2023/09/21 07:31:37;;;;;;;1.88;1.20;;;21.40;65.80;;;;;;5016130;28;20574;-60
2023/09/21 07:34:03;;;;;;;3.35;2.15;;;21.30;64.70;;;;;;4998755;28;20561;-62
2023/09/21 07:36:28;;;;;;;2.00;1.60;;;21.30;63.50;;;;;;5020930;28;20577;-60
2023/09/21 07:38:55;;;;;;;3.03;1.70;;;21.30;64.90;;;;;;5018906;28;20068;-63
2023/09/21 07:41:21;;;;;;;3.13;1.40;;;21.30;64.80;;;;;;5002742;28;20030;-62
2023/09/21 07:43:48;;;;;;;3.10;1.48;;;21.30;64.80;;;;;;5017497;28;20029;-60
2023/09/21 07:46:14;;;;;;;3.72;1.58;;;21.30;64.90;;;;;;4995468;28;20152;-64
2023/09/21 07:48:40;;;;;;;3.15;1.33;;;21.30;64.80;;;;;;5013977;28;20116;-65
2023/09/21 07:51:08;;;;;;;3.05;1.92;;;21.30;65.10;;;;;;5016639;28;20036;-65
2023/09/21 07:53:35;;;;;;;2.35;1.40;;;21.30;65.10;;;;;;5018165;28;20029;-62
2023/09/21 07:56:05;;;;;;;1.70;1.38;;;21.30;64.80;;;;;;5017021;28;20042;-65
2023/09/21 07:58:31;;;;;;;3.28;1.90;;;21.30;64.40;;;;;;5020426;28;20053;-60
2023/09/21 08:00:57;;;;;;;7.38;2.13;;;21.30;64.60;;;;;;5015508;28;20057;-66
2023/09/21 08:03:26;;;;;;;4.20;2.33;;;21.30;64.40;;;;;;5021728;28;20116;-64
2023/09/21 08:05:59;;;;;;;5.57;2.00;;;21.20;63.70;;;;;;5019350;28;20032;-65
2023/09/21 08:08:25;;;;;;;5.15;2.05;;;21.20;64.30;;;;;;5021167;28;20030;-65
2023/09/21 08:10:52;;;;;;;3.13;2.10;;;21.20;64.20;;;;;;5022463;28;20403;-60
2023/09/21 08:13:19;;;;;;;3.40;2.28;;;21.20;64.30;;;;;;5020803;28;20127;-63
2023/09/21 08:15:45;;;;;;;4.38;1.98;;;21.20;64.40;;;;;;5019440;28;20527;-65
2023/09/21 08:18:10;;;;;;;5.18;1.88;;;21.20;64.50;;;;;;5020135;28;20029;-64
2023/09/21 08:20:39;;;;;;;3.85;2.40;;;21.20;64.70;;;;;;5018316;28;20048;-61
2023/09/21 08:23:09;;;;;;;3.60;2.17;;;21.20;65.00;;;;;;5019491;28;20512;-65
2023/09/21 08:25:36;;;;;;;7.32;3.00;;;21.20;64.40;;;;;;5016911;28;20040;-64
2023/09/21 08:28:04;;;;;;;6.18;2.50;;;21.20;64.20;;;;;;5022147;28;20279;-65
2023/09/21 08:30:32;;;;;;;5.65;2.85;;;21.20;64.50;;;;;;5017405;28;20115;-61
2023/09/21 08:32:58;;;;;;;5.88;2.30;;;21.20;64.50;;;;;;5021649;28;20112;-63
2023/09/21 08:35:24;;;;;;;4.97;2.35;;;21.20;64.30;;;;;;5021760;28;20037;-64
2023/09/21 08:37:50;;;;;;;4.30;2.30;;;21.20;64.30;;;;;;5021134;28;20112;-64
2023/09/21 08:40:17;;;;;;;4.47;2.80;;;21.20;63.90;;;;;;5020048;28;20168;-60
2023/09/21 08:42:44;;;;;;;4.25;2.55;;;21.20;64.10;;;;;;5019858;28;20510;-65
2023/09/21 08:45:11;;;;;;;5.53;2.67;;;21.30;64.30;;;;;;5020282;28;20392;-65
2023/09/21 08:47:40;;;;;;;6.22;2.75;;;21.20;64.00;;;;;;5015442;28;20034;-64
2023/09/21 08:50:09;;;;;;;3.75;2.83;;;21.20;64.10;;;;;;5016660;28;20114;-59
2023/09/21 08:52:36;;;;;;;4.63;2.47;;;21.20;63.90;;;;;;5015158;28;20385;-64
2023/09/21 08:55:02;;;;;;;3.28;2.20;;;21.20;63.40;;;;;;5012773;28;20388;-63
2023/09/21 08:57:28;;;;;;;5.32;2.55;;;21.30;63.50;;;;;;5017885;28;20022;-64
2023/09/21 09:00:00;;;;;;;3.85;2.20;;;21.30;63.50;;;;;;5014158;28;20519;-61
2023/09/21 09:02:27;;;;;;;4.50;2.25;;;21.30;62.70;;;;;;5021206;28;20484;-61
2023/09/21 09:04:52;;;;;;;2.88;2.08;;;21.30;62.70;;;;;;5021844;28;20144;-62
2023/09/21 09:07:18;;;;;;;3.15;2.10;;;21.30;61.60;;;;;;5016840;28;20057;-62
2023/09/21 09:09:46;;;;;;;4.57;1.88;;;21.30;62.10;;;;;;5020822;28;20064;-65
2023/09/21 09:12:24;;;;;;;3.85;1.88;;;21.30;62.10;;;;;;5018136;28;20471;-64
2023/09/21 09:14:51;;;;;;;5.43;2.08;;;21.30;62.50;;;;;;5015998;28;20091;-61
2023/09/21 09:17:17;;;;;;;6.18;1.98;;;21.30;62.50;;;;;;4997646;28;20022;-60
2023/09/21 09:19:45;;;;;;;6.47;2.15;;;21.30;62.70;;;;;;5014559;28;20044;-59
2023/09/21 09:22:11;;;;;;;2.85;2.15;;;21.40;62.80;;;;;;5013922;28;20027;-61
2023/09/21 09:24:37;;;;;;;4.70;2.10;;;21.30;62.90;;;;;;5015797;28;20033;-60
2023/09/21 09:27:03;;;;;;;3.80;2.08;;;21.30;62.80;;;;;;5015378;28;20025;-64
2023/09/21 09:29:29;;;;;;;6.07;2.47;;;21.30;62.70;;;;;;5018424;28;20036;-59
2023/09/21 09:31:54;;;;;;;2.92;1.90;;;21.30;62.90;;;;;;5015762;28;20029;-60
2023/09/21 09:34:22;;;;;;;4.05;2.00;;;21.40;62.90;;;;;;5018925;28;20030;-63
2023/09/21 09:36:51;;;;;;;3.42;2.45;;;21.40;63.10;;;;;;5020788;28;20030;-64
2023/09/21 09:39:18;;;;;;;3.92;1.75;;;21.40;63.30;;;;;;5016177;28;20032;-60
2023/09/21 09:41:46;;;;;;;4.20;2.20;;;21.40;63.50;;;;;;5019162;28;20040;-63
2023/09/21 09:44:14;;;;;;;4.80;1.90;;;21.40;63.10;;;;;;5018723;28;20515;-63
2023/09/21 09:46:42;;;;;;;5.10;2.08;;;21.40;63.20;;;;;;5016540;28;20109;-63
2023/09/21 09:49:10;;;;;;;3.90;2.10;;;21.40;63.80;;;;;;5014448;28;20036;-63
2023/09/21 09:51:45;;;;;;;4.60;2.60;;;21.40;63.70;;;;;;5013020;28;20520;-65
2023/09/21 09:54:16;;;;;;;5.72;2.10;;;21.40;63.20;;;;;;5011214;28;20107;-64
2023/09/21 09:56:42;;;;;;;3.42;1.60;;;21.40;62.70;;;;;;5015144;28;20025;-62
2023/09/21 09:59:12;;;;;;;3.88;1.70;;;21.50;62.40;;;;;;5011250;28;20041;-64
2023/09/21 10:01:39;;;;;;;3.70;1.92;;;21.50;62.50;;;;;;5018030;28;20033;-64
2023/09/21 10:04:07;;;;;;;5.22;2.00;;;21.50;62.20;;;;;;5018327;28;20030;-60
2023/09/21 10:06:36;;;;;;;3.95;1.85;;;21.50;62.20;;;;;;5019786;28;20036;-60
2023/09/21 10:09:10;;;;;;;4.35;1.98;;;21.50;62.10;;;;;;5016471;28;20033;-63
2023/09/21 10:11:39;;;;;;;3.08;1.50;;;21.50;62.00;;;;;;5019406;28;20404;-64
2023/09/21 10:14:07;;;;;;;4.60;2.05;;;21.50;62.20;;;;;;5015081;28;20176;-62
2023/09/21 10:16:38;;;;;;;4.10;1.95;;;21.50;62.40;;;;;;5015754;28;20408;-64
2023/09/21 10:19:04;;;;;;;3.20;2.35;;;21.50;62.90;;;;;;5016122;28;20080;-63
2023/09/21 10:21:31;;;;;;;3.38;1.60;;;21.50;63.00;;;;;;5011574;28;20462;-64
2023/09/21 10:24:17;;;;;;;2.38;1.98;;;21.50;62.90;;;;;;5016242;28;20026;-64
2023/09/21 10:26:45;;;;;;;4.82;1.92;;;21.50;63.10;;;;;;5013144;28;20025;-63
2023/09/21 10:29:15;;;;;;;6.18;2.30;;;21.50;63.10;;;;;;5017651;28;20029;-63
2023/09/21 10:31:44;;;;;;;6.82;2.38;;;21.60;63.80;;;;;;5015992;28;20120;-65
2023/09/21 10:34:12;;;;;;;6.07;2.80;;;21.60;63.60;;;;;;5016828;28;20060;-63
2023/09/21 10:36:49;;;;;;;5.88;2.65;;;21.60;63.60;;;;;;5019737;28;20036;-65
2023/09/21 10:39:26;;;;;;;3.75;2.45;;;21.60;64.20;;;;;;5018334;28;20165;-65
2023/09/21 10:41:53;;;;;;;5.47;2.85;;;21.60;64.20;;;;;;5019142;28;20587;-63
2023/09/21 10:44:52;;;;;;;3.90;2.70;;;21.70;64.40;;;;;;5017045;28;20033;-65
2023/09/21 10:47:30;;;;;;;4.97;3.08;;;21.60;64.40;;;;;;5013300;28;20026;-64
2023/09/21 10:49:58;;;;;;;3.40;3.10;;;21.70;64.30;;;;;;5015132;28;20037;-64
2023/09/21 10:52:27;;;;;;;5.53;3.20;;;21.70;65.50;;;;;;5014679;28;20037;-63
2023/09/21 10:54:54;;;;;;;7.05;3.20;;;21.70;64.80;;;;;;4994716;28;20531;-61
2023/09/21 10:57:29;;;;;;;5.88;3.08;;;21.70;64.50;;;;;;5011581;28;20376;-64
2023/09/21 10:59:57;;;;;;;6.75;3.15;;;21.80;64.50;;;;;;5017124;28;20103;-64
2023/09/21 11:02:23;;;;;;;8.32;3.05;;;21.80;64.60;;;;;;5019010;28;20034;-66
2023/09/21 11:04:52;;;;;;;6.47;2.95;;;21.80;64.50;;;;;;5026210;28;20025;-64
2023/09/21 11:07:18;;;;;;;2.92;2.45;;;21.80;64.20;;;;;;5017770;28;20030;-64
2023/09/21 11:09:44;;;;;;;5.88;2.90;;;21.80;63.80;;;;;;5017958;28;20109;-62
2023/09/21 11:12:18;;;;;;;7.38;3.25;;;21.80;63.70;;;;;;4999447;28;20113;-64
2023/09/21 11:14:48;;;;;;;3.15;2.33;;;21.80;63.60;;;;;;5013365;28;20488;-65
2023/09/21 11:17:18;;;;;;;6.65;2.72;;;21.70;63.70;;;;;;5012373;28;20026;-63
2023/09/21 11:19:46;;;;;;;3.83;2.22;;;21.70;64.00;;;;;;5014721;28;20121;-64
2023/09/21 11:22:13;;;;;;;3.65;2.42;;;21.70;64.10;;;;;;5015158;28;20113;-64
2023/09/21 11:24:39;;;;;;;4.70;2.85;;;21.70;64.00;;;;;;5015362;28;20032;-64
2023/09/21 11:27:14;;;;;;;2.95;2.42;;;21.70;63.40;;;;;;5023920;28;20029;-59
2023/09/21 11:29:41;;;;;;;5.88;2.78;;;21.70;63.50;;;;;;5022788;28;20117;-63
2023/09/21 11:32:17;;;;;;;5.60;2.55;;;21.70;63.80;;;;;;5021214;28;20029;-64
2023/09/21 11:34:44;;;;;;;3.58;2.58;;;21.80;64.10;;;;;;5018420;28;20403;-63
2023/09/21 11:37:11;;;;;;;7.03;2.47;;;21.80;63.90;;;;;;5020622;28;20025;-63
2023/09/21 11:39:44;;;;;;;3.83;2.58;;;21.80;63.80;;;;;;5018441;28;20029;-58
2023/09/21 11:42:11;;;;;;;5.40;2.33;;;21.80;63.40;;;;;;5018076;28;20025;-64
2023/09/21 11:44:42;;;;;;;4.50;2.55;;;21.90;63.40;;;;;;5015752;28;20029;-63
2023/09/21 11:47:11;;;;;;;4.55;2.17;;;21.80;63.40;;;;;;5017695;28;20029;-63
2023/09/21 11:49:42;;;;;;;3.72;2.63;;;21.90;62.60;;;;;;5018909;28;20057;-64
2023/09/21 11:52:13;;;;;;;4.10;1.92;;;21.80;62.30;;;;;;5001930;28;20034;-62
2023/09/21 11:54:39;;;;;;;4.80;2.40;;;21.80;62.10;;;;;;5022897;28;20026;-63
2023/09/21 11:57:07;;;;;;;3.75;2.10;;;21.80;60.90;;;;;;5023402;28;20017;-63
2023/09/21 11:59:39;;;;;;;5.40;1.88;;;21.90;60.20;;;;;;5000937;28;20121;-65
2023/09/21 12:02:09;;;;;;;5.60;2.03;;;21.90;60.10;;;;;;5018709;28;20053;-64
2023/09/21 12:04:36;;;;;;;2.85;2.00;;;21.90;60.40;;;;;;5020527;28;20513;-63
2023/09/21 12:07:01;;;;;;;3.72;2.28;;;21.90;60.70;;;;;;5020428;28;20026;-64
2023/09/21 12:09:27;;;;;;;4.85;1.95;;;21.90;60.80;;;;;;5017235;28;20037;-60
2023/09/21 12:11:54;;;;;;;4.93;2.25;;;21.90;60.90;;;;;;5017960;28;20022;-64
2023/09/21 12:14:21;;;;;;;5.10;2.28;;;21.80;61.40;;;;;;5013293;28;20030;-65
2023/09/21 12:16:50;;;;;;;4.88;2.70;;;21.90;61.50;;;;;;5016224;28;20103;-65
2023/09/21 12:19:16;;;;;;;5.22;2.25;;;21.90;61.00;;;;;;5016830;28;20030;-63
2023/09/21 12:21:42;;;;;;;5.07;2.05;;;21.90;60.70;;;;;;5016399;28;20044;-60
2023/09/21 12:24:07;;;;;;;4.18;2.00;;;22.00;60.90;;;;;;5023539;28;20029;-64
2023/09/21 12:26:35;;;;;;;2.72;2.30;;;22.00;60.90;;;;;;5022096;28;20467;-65
2023/09/21 12:29:01;;;;;;;3.47;2.20;;;22.00;60.90;;;;;;5022591;28;20041;-64
2023/09/21 12:31:27;;;;;;;4.43;2.33;;;22.00;61.10;;;;;;5018246;28;20034;-65
2023/09/21 12:33:53;;;;;;;3.00;2.10;;;22.00;60.80;;;;;;5020894;28;20041;-65
2023/09/21 12:36:18;;;;;;;3.10;2.08;;;22.10;61.00;;;;;;5018866;28;20479;-62
2023/09/21 12:38:44;;;;;;;4.97;2.60;;;22.00;61.00;;;;;;5021439;28;20108;-65
2023/09/21 12:41:10;;;;;;;3.17;2.15;;;22.10;60.90;;;;;;5018063;28;20435;-65
2023/09/21 12:43:38;;;;;;;2.22;1.95;;;22.00;60.90;;;;;;5017556;28;20040;-64
2023/09/21 12:46:09;;;;;;;4.50;2.50;;;22.00;60.90;;;;;;5019034;28;20033;-64
2023/09/21 12:48:36;;;;;;;3.47;2.30;;;22.10;60.90;;;;;;5015886;28;20083;-65